Monday, December 18, 2017, 9:37 AM EST
Back to Local

KART, Watertown International Airport

Location: Dexter, NY, United States Lat: 43.983
Local Time: 9:37 AM EST (14:37 GMT) Lon: -76.033
Time Zone: US/Eastern Elev: 324 ft

Show me the last for .
Show Decoded

2017-12-18 09:17 METAR KART 181417Z AUTO 07004KT 3/4SM -SN BR OVC015 M07/M09 A2998 RMK AO2 P0000
                 T10721089 =
2017-12-18 08:56 METAR KART 181356Z AUTO 08004KT 1 1/2SM -SN BR OVC014 M08/M10 A2998 RMK AO2
                 SNB36 SLP163 P0000 T10781100 =
2017-12-18 08:51 METAR KART 181351Z AUTO 07005KT 2 1/2SM -SN BR OVC014 M08/M10 A2998 RMK AO2
                 SNB36 P0000 =
2017-12-18 07:56 METAR KART 181256Z AUTO 04003KT 10SM OVC019 M08/M11 A3000 RMK AO2 SLP171
                 T10831111 =
2017-12-18 06:56 METAR KART 181156Z AUTO 01004KT 10SM OVC021 M09/M11 A3002 RMK AO2 SLP175 60000
                 T10891111 11083 21111 56011 $ =
2017-12-18 05:56 METAR KART 181056Z AUTO 01003KT 10SM OVC024 M09/M11 A3002 RMK AO2 SLP176
                 T10891111 $ =
2017-12-18 05:38 METAR KART 181038Z AUTO 05003KT 10SM BKN025 BKN048 M09/M12 A3002 RMK AO2
                 T10941117 $ =
2017-12-18 04:56 METAR KART 180956Z AUTO 01005KT 10SM FEW120 M09/M12 A3003 RMK AO2 SLP179
                 T10891117 $ =
2017-12-18 03:56 METAR KART 180856Z AUTO 02003KT 10SM BKN049 M09/M11 A3005 RMK AO2 SLP186 60000
                 T10891111 56020 $ =
2017-12-18 03:18 METAR KART 180818Z AUTO 01004KT 10SM FEW023 OVC047 M08/M11 A3006 RMK AO2
                 T10831111 $ =
2017-12-18 02:56 METAR KART 180756Z AUTO 05004KT 10SM SCT017 BKN024 OVC047 M09/M12 A3007 RMK AO2
                 SNE14 SLP191 P0000 T10891117 $ =
2017-12-18 01:56 METAR KART 180656Z AUTO 04006KT 5SM -SN BKN025 BKN031 OVC042 M09/M12 A3009 RMK
                 AO2 SNB26 SLP199 P0000 T10941122 $ =
2017-12-18 00:56 METAR KART 180556Z AUTO 06003KT 10SM BKN029 OVC090 M11/M14 A3011 RMK AO2 SLP207
                 T11111139 11111 21144 56027 $ =
2017-12-17 23:56 METAR KART 180456Z AUTO 07006KT 10SM BKN120 M13/M16 A3013 RMK AO2 SLP216
                 T11281156 411001217 $ =
2017-12-17 22:56 METAR KART 180356Z AUTO 05005KT 10SM CLR M14/M17 A3016 RMK AO2 SLP225 T11391167
                 $ =
2017-12-17 21:56 METAR KART 180256Z AUTO 05005KT 10SM CLR M12/M16 A3019 RMK AO2 SLP235 T11221156
                 58019 $ =
2017-12-17 20:56 METAR KART 180156Z AUTO 06003KT 10SM CLR M12/M16 A3023 RMK AO2 SLP249 T11221161
                 $ =
2017-12-17 19:56 METAR KART 180056Z AUTO 07004KT 10SM CLR M12/M16 A3023 RMK AO2 SLP251 T11221161
                 $ =
2017-12-17 18:56 METAR KART 172356Z AUTO 05007KT 10SM CLR M12/M17 A3024 RMK AO2 SLP255 T11221167
                 11100 21133 58010 $ =
2017-12-17 17:56 METAR KART 172256Z AUTO 07004KT 10SM CLR M13/M17 A3026 RMK AO2 SLP259 T11281167
                 $ =
2017-12-17 16:56 METAR KART 172156Z AUTO 04005KT 10SM CLR M12/M17 A3028 RMK AO2 SLP266 T11221167
                 $ =
2017-12-17 15:56 METAR KART 172056Z AUTO 04005KT 10SM CLR M12/M16 A3028 RMK AO2 SLP265 T11171161
                 58010 $ =
2017-12-17 14:56 METAR KART 171956Z AUTO 03007KT 10SM CLR M11/M16 A3029 RMK AO2 SLP270 T11061161
                 $ =
2017-12-17 13:56 METAR KART 171856Z AUTO 36005KT 10SM CLR M11/M16 A3029 RMK AO2 SLP270 T11061161
                 $ =
2017-12-17 12:56 METAR KART 171756Z AUTO 05003KT 10SM CLR M12/M16 A3031 RMK AO2 SLP275 T11171161
                 11117 21206 58018 $ =
2017-12-17 11:56 METAR KART 171656Z AUTO 06007KT 10SM CLR M13/M17 A3033 RMK AO2 SLP284 T11281167
                 $ =
2017-12-17 10:56 METAR KART 171556Z AUTO 03007KT 10SM CLR M14/M18 A3036 RMK AO2 SLP294 T11391178
                 $ =
2017-12-17 09:56 METAR KART 171456Z AUTO 06007KT 10SM CLR M16/M18 A3036 RMK AO2 SLP293 T11561178
                 53014 $ =

Support USWX by starting your Amazon purchase here.